Time;durP1;ratioP1;P1;durP2;ratioP2;P2;SDS_P1;SDS_P2;PMS_P1;PMS_P2;Temp;Humidity;BMP_temperature;BMP_pressure;BME280_temperature;BME280_humidity;BME280_pressure;Samples;Min_cycle;Max_cycle;Signal;HPM_P1;HPM_P2
2022/10/09 00:00:43;;;;;;;1999.90;999.90;;;7.90;99.90;;;;;;5102278;28;20047;-63
2022/10/09 00:03:09;;;;;;;1999.90;999.90;;;7.90;99.90;;;;;;5089456;28;20093;-63
2022/10/09 00:05:34;;;;;;;1999.90;999.90;;;7.80;99.90;;;;;;5107707;28;20483;-64
2022/10/09 00:08:00;;;;;;;1999.90;999.90;;;7.80;99.90;;;;;;5094411;28;20086;-63
2022/10/09 00:10:26;;;;;;;1999.90;999.90;;;7.70;99.90;;;;;;5111664;27;20069;-63
2022/10/09 00:12:51;;;;;;;1999.90;999.90;;;7.70;99.90;;;;;;5093646;28;20151;-64
2022/10/09 00:15:17;;;;;;;1999.90;999.90;;;7.70;99.90;;;;;;5105484;28;20114;-64
2022/10/09 00:17:43;;;;;;;1999.90;999.90;;;7.60;99.90;;;;;;5090058;28;20964;-63
2022/10/09 00:20:09;;;;;;;1999.90;999.90;;;7.60;99.90;;;;;;5107453;28;20039;-64
2022/10/09 00:22:34;;;;;;;1999.90;999.90;;;7.60;99.90;;;;;;5109699;28;20408;-64
2022/10/09 00:25:00;;;;;;;1999.90;999.90;;;7.60;99.90;;;;;;5083055;28;20044;-63
2022/10/09 00:27:25;;;;;;;1999.90;999.90;;;7.60;99.90;;;;;;5109860;28;20042;-64
2022/10/09 00:29:51;;;;;;;1999.90;999.90;;;7.60;99.90;;;;;;5107973;28;20050;-63
2022/10/09 00:32:17;;;;;;;1999.90;999.90;;;7.60;99.90;;;;;;5107278;28;20058;-63
2022/10/09 00:34:43;;;;;;;1999.90;999.90;;;7.60;99.90;;;;;;5099484;28;20036;-64
2022/10/09 00:37:08;;;;;;;1999.90;999.90;;;7.70;99.90;;;;;;5103293;28;20123;-63
2022/10/09 00:39:34;;;;;;;1999.90;999.90;;;7.60;99.90;;;;;;5085134;28;20114;-64
2022/10/09 00:42:01;;;;;;;1999.90;999.90;;;7.60;99.90;;;;;;5091284;28;20039;-64
2022/10/09 00:44:45;;;;;;;1999.90;999.90;;;7.60;99.90;;;;;;5088995;28;20052;-63
2022/10/09 00:47:34;;;;;;;1999.90;999.90;;;7.70;99.90;;;;;;5107600;28;20055;-63
2022/10/09 00:50:16;;;;;;;1999.90;999.90;;;7.80;99.90;;;;;;5106479;27;20043;-63
2022/10/09 00:52:43;;;;;;;1999.90;999.90;;;7.80;99.90;;;;;;5111251;28;20408;-64
2022/10/09 00:55:09;;;;;;;1999.90;999.90;;;7.80;99.90;;;;;;5093084;28;20054;-63
2022/10/09 00:57:37;;;;;;;1999.90;999.90;;;7.80;99.90;;;;;;5093644;28;20118;-65
2022/10/09 01:00:07;;;;;;;1999.90;999.90;;;7.80;99.90;;;;;;5093163;28;20039;-64
2022/10/09 01:02:32;;;;;;;1999.90;999.90;;;7.80;99.90;;;;;;5097890;27;20409;-63
2022/10/09 01:04:58;;;;;;;1999.90;999.90;;;7.90;99.90;;;;;;5093704;28;20035;-63
2022/10/09 01:07:44;;;;;;;1999.90;999.90;;;7.90;99.90;;;;;;5113284;27;20487;-63
2022/10/09 01:10:46;;;;;;;1999.90;999.90;;;7.90;99.90;;;;;;5107080;27;20192;-63
2022/10/09 01:13:14;;;;;;;1999.90;999.90;;;7.80;99.90;;;;;;5083338;28;20105;-64
2022/10/09 01:15:46;;;;;;;1999.90;999.90;;;7.80;99.90;;;;;;5094079;28;20051;-64
2022/10/09 01:18:30;;;;;;;1999.90;999.90;;;7.80;99.90;;;;;;5093445;28;20066;-64
2022/10/09 01:21:15;;;;;;;1999.90;999.90;;;7.70;99.90;;;;;;5110640;28;20039;-66
2022/10/09 01:24:07;;;;;;;1999.90;999.90;;;7.70;99.90;;;;;;5092523;28;20853;-64
2022/10/09 01:26:44;;;;;;;1999.90;999.90;;;7.60;99.90;;;;;;5111067;27;20043;-64
2022/10/09 01:29:12;;;;;;;1999.90;999.90;;;7.60;99.90;;;;;;5109562;28;20043;-64
2022/10/09 01:31:41;;;;;;;1999.90;999.90;;;7.60;99.90;;;;;;5112402;27;20035;-63
2022/10/09 01:34:09;;;;;;;1999.90;999.90;;;7.50;99.90;;;;;;5116880;27;20043;-63
2022/10/09 01:36:35;;;;;;;1999.90;999.90;;;7.50;99.90;;;;;;5093369;28;20039;-63
2022/10/09 01:39:04;;;;;;;1999.90;999.90;;;7.40;99.90;;;;;;5085211;28;20047;-64
2022/10/09 01:41:29;;;;;;;1999.90;999.90;;;7.40;99.90;;;;;;5104406;28;20107;-64
2022/10/09 01:43:55;;;;;;;1999.90;999.90;;;7.40;99.90;;;;;;5108810;27;20055;-64
2022/10/09 01:46:28;;;;;;;1999.90;999.90;;;7.30;99.90;;;;;;5110390;28;20614;-63
2022/10/09 01:49:18;;;;;;;1999.90;999.90;;;7.30;99.90;;;;;;5101786;28;20126;-63
2022/10/09 01:52:06;;;;;;;1999.90;999.90;;;7.40;99.90;;;;;;5098652;27;20069;-64
2022/10/09 01:54:51;;;;;;;1999.90;999.90;;;7.30;99.90;;;;;;5110382;28;20055;-64
2022/10/09 01:57:31;;;;;;;1999.90;999.90;;;7.20;99.90;;;;;;5096986;28;20044;-63
2022/10/09 01:59:58;;;;;;;1999.90;999.90;;;7.10;99.90;;;;;;5098434;28;20523;-64
2022/10/09 02:02:25;;;;;;;1999.90;999.90;;;7.10;99.90;;;;;;5109530;28;20393;-64
2022/10/09 02:04:52;;;;;;;1999.90;999.90;;;7.00;99.90;;;;;;5109907;28;20074;-64
2022/10/09 02:07:17;;;;;;;1999.90;999.90;;;7.00;99.90;;;;;;5109887;28;20042;-64
2022/10/09 02:09:44;;;;;;;1999.90;999.90;;;6.90;99.90;;;;;;5091608;28;20446;-63
2022/10/09 02:12:10;;;;;;;1999.90;999.90;;;6.90;99.90;;;;;;5111362;27;20031;-64
2022/10/09 02:14:36;;;;;;;1999.90;999.90;;;6.90;99.90;;;;;;5109328;28;20040;-63
2022/10/09 02:17:09;;;;;;;1999.90;999.90;;;6.90;99.90;;;;;;5091937;28;20076;-64
2022/10/09 02:19:41;;;;;;;;;;;7.00;99.90;;;;;;5096129;28;20546;-63
2022/10/09 02:22:14;;;;;;;1999.90;999.90;;;6.90;99.90;;;;;;5091702;28;19923;-64
2022/10/09 02:24:41;;;;;;;;;;;7.00;99.90;;;;;;5109096;28;20044;-64
2022/10/09 02:27:07;;;;;;;1999.90;999.90;;;7.00;99.90;;;;;;5109865;28;20393;-64
2022/10/09 02:29:33;;;;;;;1999.90;999.90;;;7.00;99.90;;;;;;5090940;28;20401;-63
2022/10/09 02:31:59;;;;;;;1999.90;999.90;;;7.00;99.90;;;;;;5109270;27;20042;-64
2022/10/09 02:34:24;;;;;;;1999.90;999.90;;;7.00;99.90;;;;;;5120674;27;20058;-63
2022/10/09 02:36:50;;;;;;;1999.90;999.90;;;7.00;99.90;;;;;;5114089;27;20040;-64
2022/10/09 02:39:16;;;;;;;1999.90;999.90;;;7.00;99.90;;;;;;5117316;27;20447;-64
2022/10/09 02:41:41;;;;;;;1999.90;999.90;;;7.00;99.90;;;;;;5119835;27;20043;-64
2022/10/09 02:44:07;;;;;;;1999.90;999.90;;;6.90;99.90;;;;;;5082436;27;20062;-64
2022/10/09 02:46:33;;;;;;;1999.90;999.90;;;6.90;99.90;;;;;;5128584;27;20122;-64
2022/10/09 02:48:59;;;;;;;1999.90;999.90;;;6.90;99.90;;;;;;5106937;27;20396;-64
2022/10/09 02:51:25;;;;;;;1999.90;999.90;;;6.90;99.90;;;;;;5074793;28;20035;-64
2022/10/09 02:53:52;;;;;;;1999.90;999.90;;;6.90;99.90;;;;;;5104544;27;20049;-64
2022/10/09 02:56:19;;;;;;;1999.90;999.90;;;6.90;99.90;;;;;;5109672;28;20066;-64
2022/10/09 02:58:45;;;;;;;1999.90;999.90;;;6.80;99.90;;;;;;5100811;28;20039;-64
2022/10/09 03:01:10;;;;;;;1999.90;999.90;;;6.80;99.90;;;;;;5077784;28;20042;-64
2022/10/09 03:03:36;;;;;;;1999.90;999.90;;;6.80;99.90;;;;;;5109299;28;20081;-64
2022/10/09 03:06:10;;;;;;;1999.90;999.90;;;6.80;99.90;;;;;;5104990;28;20086;-64
2022/10/09 03:08:38;;;;;;;1999.90;999.90;;;6.80;99.90;;;;;;5108804;28;20040;-64
2022/10/09 03:11:05;;;;;;;1999.90;999.90;;;6.70;99.90;;;;;;5100247;28;20039;-64
2022/10/09 03:13:31;;;;;;;1999.90;999.90;;;6.70;99.90;;;;;;5109840;27;20438;-64
2022/10/09 03:16:09;;;;;;;1999.90;999.90;;;6.60;99.90;;;;;;5097017;27;20039;-64
2022/10/09 03:18:35;;;;;;;1999.90;999.90;;;6.50;99.90;;;;;;5109608;27;20067;-64
2022/10/09 03:21:08;;;;;;;1999.90;999.90;;;6.50;99.90;;;;;;5101338;28;20067;-64
2022/10/09 03:23:34;;;;;;;;;;;6.40;99.90;;;;;;5108542;28;20035;-64
2022/10/09 03:26:02;;;;;;;1999.90;999.90;;;6.40;99.90;;;;;;5092563;27;19919;-64
2022/10/09 03:28:28;;;;;;;1999.90;999.90;;;6.30;99.90;;;;;;5108882;28;20036;-64
2022/10/09 03:30:53;;;;;;;1999.90;999.90;;;6.30;99.90;;;;;;5106266;27;20036;-64
2022/10/09 03:33:19;;;;;;;1999.90;999.90;;;6.30;99.90;;;;;;5108540;28;20039;-64
2022/10/09 03:35:48;;;;;;;1999.90;999.90;;;6.20;99.90;;;;;;5097752;28;20047;-65
2022/10/09 03:38:15;;;;;;;1999.90;999.90;;;6.20;99.90;;;;;;5090878;28;20395;-64
2022/10/09 03:40:41;;;;;;;1999.90;999.90;;;6.20;99.90;;;;;;5096173;28;20478;-64
2022/10/09 03:43:07;;;;;;;1999.90;999.90;;;6.20;99.90;;;;;;5097051;28;20565;-64
2022/10/09 03:45:33;;;;;;;1999.90;999.90;;;6.30;99.90;;;;;;5091832;28;20079;-65
2022/10/09 03:47:58;;;;;;;1999.90;999.90;;;6.40;99.90;;;;;;5103622;28;20039;-64
2022/10/09 03:50:24;;;;;;;1999.90;999.90;;;6.40;99.90;;;;;;5091527;28;20166;-65
2022/10/09 03:52:49;;;;;;;1999.90;999.90;;;6.50;99.90;;;;;;5064401;28;20109;-64
2022/10/09 03:55:15;;;;;;;1999.90;999.90;;;6.50;99.90;;;;;;5095790;28;20130;-64
2022/10/09 03:57:41;;;;;;;1999.90;999.90;;;6.50;99.90;;;;;;5108564;28;20035;-64
2022/10/09 04:00:07;;;;;;;1999.90;999.90;;;6.50;99.90;;;;;;5097199;28;20047;-64
2022/10/09 04:02:33;;;;;;;1999.90;999.90;;;6.50;99.90;;;;;;5072641;28;20051;-64
2022/10/09 04:04:59;;;;;;;1999.90;999.90;;;6.40;99.90;;;;;;5094356;28;20047;-64
2022/10/09 04:07:24;;;;;;;1999.90;999.90;;;6.40;99.90;;;;;;5104910;28;20116;-64
2022/10/09 04:09:50;;;;;;;1999.90;999.90;;;6.40;99.90;;;;;;5097285;28;20032;-64
2022/10/09 04:12:16;;;;;;;1999.90;999.90;;;6.40;99.90;;;;;;5107746;28;20075;-64
2022/10/09 04:14:41;;;;;;;1999.90;999.90;;;6.30;99.90;;;;;;5102473;28;20043;-64
2022/10/09 04:17:07;;;;;;;1999.90;999.90;;;6.30;99.90;;;;;;5107768;28;20032;-64
2022/10/09 04:19:32;;;;;;;1999.90;999.90;;;6.30;99.90;;;;;;5108965;28;20046;-64
2022/10/09 04:21:58;;;;;;;1999.90;999.90;;;6.20;99.90;;;;;;5107991;28;20118;-64
2022/10/09 04:24:23;;;;;;;1999.90;999.90;;;6.20;99.90;;;;;;5090275;28;20035;-64
2022/10/09 04:26:49;;;;;;;1999.90;999.90;;;6.20;99.90;;;;;;5113228;28;20537;-64
2022/10/09 04:29:15;;;;;;;1999.90;999.90;;;6.10;99.90;;;;;;5111556;27;20504;-64
2022/10/09 04:31:40;;;;;;;1999.90;999.90;;;6.10;99.90;;;;;;5094695;28;20039;-64
2022/10/09 04:34:06;;;;;;;1999.90;999.90;;;6.20;99.90;;;;;;5112561;28;20503;-64
2022/10/09 04:36:31;;;;;;;1999.90;999.90;;;6.10;99.90;;;;;;5111322;28;20507;-64
2022/10/09 04:38:57;;;;;;;1999.90;999.90;;;6.10;99.90;;;;;;5097266;28;20449;-64
2022/10/09 04:41:22;;;;;;;1999.90;999.90;;;6.10;99.90;;;;;;5109652;27;20038;-64
2022/10/09 04:43:52;;;;;;;1999.90;999.90;;;6.00;99.90;;;;;;5114357;27;20135;-64
2022/10/09 04:46:18;;;;;;;1999.90;999.90;;;5.90;99.90;;;;;;5111658;28;20396;-64
2022/10/09 04:48:44;;;;;;;1999.90;999.90;;;5.90;99.90;;;;;;5107689;28;20042;-64
2022/10/09 04:51:11;;;;;;;1999.90;999.90;;;5.90;99.90;;;;;;5089426;28;20305;-64
2022/10/09 04:53:38;;;;;;;1999.90;999.90;;;5.90;99.90;;;;;;5106517;28;20086;-64
2022/10/09 04:56:11;;;;;;;1999.90;999.90;;;5.90;99.90;;;;;;5112079;28;20066;-64
2022/10/09 04:58:39;;;;;;;1999.90;999.90;;;5.90;99.90;;;;;;5109035;27;20082;-64
2022/10/09 05:01:10;;;;;;;1999.90;999.90;;;5.90;99.90;;;;;;5094337;28;20079;-64
2022/10/09 05:03:36;;;;;;;1999.90;999.90;;;5.80;99.90;;;;;;5111735;28;20392;-64
2022/10/09 05:06:03;;;;;;;1999.90;999.90;;;5.80;99.90;;;;;;5092002;28;20043;-64
2022/10/09 05:08:30;;;;;;;1999.90;999.90;;;5.90;99.90;;;;;;5111248;28;20505;-64
2022/10/09 05:11:00;;;;;;;1999.90;999.90;;;5.90;99.90;;;;;;5110864;28;20047;-64
2022/10/09 05:13:28;;;;;;;1999.90;999.90;;;5.90;99.90;;;;;;5111862;28;20416;-64
2022/10/09 05:15:54;;;;;;;1999.90;999.90;;;6.00;99.90;;;;;;5089226;28;20397;-64
2022/10/09 05:18:19;;;;;;;1999.90;999.90;;;6.00;99.90;;;;;;5111694;28;20035;-64
2022/10/09 05:20:45;;;;;;;1999.90;999.90;;;6.00;99.90;;;;;;5086093;28;20517;-64
2022/10/09 05:23:10;;;;;;;1999.90;999.90;;;6.10;99.90;;;;;;5114232;27;20038;-64
2022/10/09 05:25:36;;;;;;;1999.90;999.90;;;6.10;99.90;;;;;;5121207;27;20051;-64
2022/10/09 05:28:01;;;;;;;1999.90;999.90;;;6.10;99.90;;;;;;5091949;28;20131;-64
2022/10/09 05:30:27;;;;;;;1999.90;999.90;;;6.10;99.90;;;;;;5110966;28;20031;-64
2022/10/09 05:32:52;;;;;;;1999.90;999.90;;;6.10;99.90;;;;;;5091847;28;20602;-64
2022/10/09 05:35:18;;;;;;;1999.90;999.90;;;6.10;99.90;;;;;;5107173;28;20528;-65
2022/10/09 05:37:44;;;;;;;1999.90;999.90;;;6.00;99.90;;;;;;5110701;28;20557;-64
2022/10/09 05:40:10;;;;;;;1999.90;999.90;;;6.00;99.90;;;;;;5093753;28;20121;-64
2022/10/09 05:42:35;;;;;;;1999.90;999.90;;;5.90;99.90;;;;;;5097569;28;20131;-64
2022/10/09 05:45:01;;;;;;;1999.90;999.90;;;5.90;99.90;;;;;;5106896;28;21753;-64
2022/10/09 05:47:29;;;;;;;1999.90;999.90;;;5.80;99.90;;;;;;5098232;28;20489;-64
2022/10/09 05:49:54;;;;;;;1999.90;999.90;;;5.80;99.90;;;;;;5109703;28;20044;-64
2022/10/09 05:52:20;;;;;;;1999.90;999.90;;;5.80;99.90;;;;;;5110514;28;20054;-64
2022/10/09 05:54:46;;;;;;;1999.90;999.90;;;5.70;99.90;;;;;;5103769;27;20043;-64
2022/10/09 05:57:11;;;;;;;1999.90;999.90;;;5.70;99.90;;;;;;5112856;27;20386;-64
2022/10/09 05:59:37;;;;;;;1999.90;999.90;;;5.70;99.90;;;;;;5112408;27;20126;-64
2022/10/09 06:02:03;;;;;;;1999.90;999.90;;;5.60;99.90;;;;;;5110039;28;20505;-64
2022/10/09 06:04:28;;;;;;;1999.90;999.90;;;5.60;99.90;;;;;;5110171;28;20050;-64
2022/10/09 06:06:54;;;;;;;1999.90;999.90;;;5.70;99.90;;;;;;5109399;28;20070;-64
2022/10/09 06:09:21;;;;;;;1999.90;999.90;;;5.60;99.90;;;;;;5111691;27;20366;-64
2022/10/09 06:11:49;;;;;;;1999.90;999.90;;;5.70;99.90;;;;;;5109145;27;20035;-64
2022/10/09 06:14:15;;;;;;;1999.90;999.90;;;5.70;99.90;;;;;;5111900;27;20039;-64
2022/10/09 06:16:43;;;;;;;1999.90;999.90;;;5.70;99.90;;;;;;5110342;28;20105;-64
2022/10/09 06:19:14;;;;;;;1999.90;999.90;;;5.70;99.90;;;;;;5111198;27;20040;-64
2022/10/09 06:21:40;;;;;;;1999.90;999.90;;;5.70;99.90;;;;;;5111285;27;20065;-64
2022/10/09 06:24:06;;;;;;;1999.90;999.90;;;5.80;99.90;;;;;;5107738;28;20044;-64
2022/10/09 06:26:33;;;;;;;1999.90;999.90;;;5.80;99.90;;;;;;5110036;28;20043;-64
2022/10/09 06:29:00;;;;;;;1999.90;999.90;;;5.80;99.90;;;;;;5082502;28;20040;-64
2022/10/09 06:31:28;;;;;;;1999.90;999.90;;;5.80;99.90;;;;;;5112371;27;20066;-64
2022/10/09 06:33:54;;;;;;;1999.90;999.90;;;5.80;99.90;;;;;;5125579;27;20389;-64
2022/10/09 06:36:22;;;;;;;1999.90;999.90;;;5.80;99.90;;;;;;5088822;28;20127;-64
2022/10/09 06:38:48;;;;;;;1999.90;999.90;;;5.90;99.90;;;;;;5083794;28;20040;-64
2022/10/09 06:41:17;;;;;;;1999.90;999.90;;;5.90;99.90;;;;;;5084878;28;20039;-64
2022/10/09 06:44:07;;;;;;;1999.90;999.90;;;6.00;99.90;;;;;;5097322;27;20059;-64
2022/10/09 06:46:40;;;;;;;1999.90;999.90;;;6.10;99.90;;;;;;5121210;27;20054;-64
2022/10/09 06:49:06;;;;;;;;;;;6.10;99.90;;;;;;5094502;28;20076;-64
2022/10/09 06:51:33;;;;;;;1999.90;999.90;;;6.20;99.90;;;;;;5128325;27;19919;-64
2022/10/09 06:54:01;;;;;;;1999.90;999.90;;;6.30;99.90;;;;;;5094713;28;20039;-64
2022/10/09 06:56:29;;;;;;;1999.90;999.90;;;6.40;99.90;;;;;;5108942;28;20047;-65
2022/10/09 06:58:55;;;;;;;1999.90;999.90;;;6.50;99.90;;;;;;5108938;28;20892;-64
2022/10/09 07:01:25;;;;;;;1999.90;999.90;;;6.50;99.90;;;;;;5109455;28;20036;-64
2022/10/09 07:03:54;;;;;;;1999.90;999.90;;;6.60;99.90;;;;;;5102509;28;20065;-64
2022/10/09 07:06:31;;;;;;;1999.90;999.90;;;6.70;99.90;;;;;;5092618;28;20031;-64
2022/10/09 07:08:59;;;;;;;1999.90;999.90;;;6.80;99.90;;;;;;5096266;28;20063;-64
2022/10/09 07:11:27;;;;;;;1999.90;999.90;;;6.90;99.90;;;;;;5109301;28;20035;-64
2022/10/09 07:13:55;;;;;;;1999.90;999.90;;;7.00;99.90;;;;;;5084262;28;20526;-64
2022/10/09 07:16:27;;;;;;;1999.90;999.90;;;7.10;99.90;;;;;;5078162;28;20050;-64
2022/10/09 07:18:54;;;;;;;1999.90;999.90;;;7.20;99.90;;;;;;5074036;28;20040;-64
2022/10/09 07:21:20;;;;;;;1999.90;999.90;;;7.30;99.90;;;;;;5107704;28;20043;-64
2022/10/09 07:23:46;;;;;;;1999.90;999.90;;;7.40;99.90;;;;;;5090048;28;20040;-64
2022/10/09 07:26:14;;;;;;;1999.90;999.90;;;7.50;99.90;;;;;;5090447;28;20108;-64
2022/10/09 07:28:41;;;;;;;1999.90;999.90;;;7.60;99.90;;;;;;5099910;28;20108;-64
2022/10/09 07:31:07;;;;;;;1999.90;999.90;;;7.60;99.90;;;;;;5103050;28;20401;-65
2022/10/09 07:33:33;;;;;;;1999.90;999.90;;;7.70;99.90;;;;;;5108671;28;20043;-65
2022/10/09 07:36:01;;;;;;;1999.90;999.90;;;7.80;99.90;;;;;;5108062;28;20130;-64
2022/10/09 07:38:27;;;;;;;1999.90;999.90;;;7.90;99.90;;;;;;5076904;28;20062;-64
2022/10/09 07:40:53;;;;;;;1999.90;999.90;;;8.00;99.90;;;;;;5108783;28;20056;-64
2022/10/09 07:43:20;;;;;;;1999.90;999.90;;;8.10;99.90;;;;;;5106187;27;20074;-65
2022/10/09 07:45:46;;;;;;;1999.90;999.90;;;8.20;99.90;;;;;;5090589;28;20082;-65
2022/10/09 07:48:12;;;;;;;1999.90;999.90;;;8.30;99.90;;;;;;5107922;28;20050;-64
2022/10/09 07:50:37;;;;;;;1999.90;999.90;;;8.40;99.90;;;;;;5108356;28;20031;-65
2022/10/09 07:53:03;;;;;;;1999.90;999.90;;;8.50;99.90;;;;;;5108160;28;20053;-65
2022/10/09 07:55:29;;;;;;;1999.90;999.90;;;8.60;99.90;;;;;;5072776;28;20075;-65
2022/10/09 07:57:54;;;;;;;1999.90;999.90;;;8.70;99.90;;;;;;5089994;28;20051;-64
2022/10/09 08:00:20;;;;;;;1999.90;999.90;;;8.80;99.90;;;;;;5126580;27;20042;-64
2022/10/09 08:02:45;;;;;;;1999.90;999.90;;;8.90;99.90;;;;;;5109813;27;20050;-65
2022/10/09 08:05:11;;;;;;;1999.90;999.90;;;9.00;99.90;;;;;;5089265;28;20085;-64
2022/10/09 08:07:37;;;;;;;1999.90;999.90;;;9.10;99.90;;;;;;5089816;28;20127;-64
2022/10/09 08:10:03;;;;;;;1999.90;999.90;;;9.30;99.90;;;;;;5089441;28;20492;-64
2022/10/09 08:12:29;;;;;;;1999.90;999.90;;;9.50;99.90;;;;;;5107814;28;20108;-64
2022/10/09 08:14:55;;;;;;;1999.90;999.90;;;9.70;99.90;;;;;;5108054;28;20040;-64
2022/10/09 08:17:20;;;;;;;1999.90;999.90;;;10.10;99.90;;;;;;5093507;28;20043;-64
2022/10/09 08:19:46;;;;;;;1999.90;999.90;;;10.50;99.90;;;;;;5127420;28;20062;-64
2022/10/09 08:22:11;;;;;;;1999.90;999.90;;;10.90;99.90;;;;;;5089677;28;20089;-65
2022/10/09 08:24:38;;;;;;;1999.90;999.90;;;11.10;99.90;;;;;;5072295;28;20118;-65
2022/10/09 08:27:05;;;;;;;1999.90;999.90;;;11.40;99.90;;;;;;5106997;28;20051;-65
2022/10/09 08:29:32;;;;;;;1999.90;999.90;;;12.10;99.90;;;;;;5108531;28;20088;-64
2022/10/09 08:31:57;;;;;;;1999.90;999.90;;;13.20;99.90;;;;;;5079003;28;20044;-65
2022/10/09 08:34:23;;;;;;;1999.90;999.90;;;14.00;99.90;;;;;;5106399;28;20057;-65
2022/10/09 08:36:49;;;;;;;1999.90;999.90;;;14.60;99.90;;;;;;5106866;28;20518;-65
2022/10/09 08:39:15;;;;;;;1999.90;999.90;;;15.00;99.90;;;;;;5107608;28;20438;-65
2022/10/09 08:41:47;;;;;;;1999.90;999.90;;;15.30;99.90;;;;;;5102851;28;20073;-65
2022/10/09 08:44:15;;;;;;;1999.90;999.90;;;15.70;99.90;;;;;;5086995;28;20052;-65
2022/10/09 08:46:53;;;;;;;1999.90;999.90;;;16.00;99.90;;;;;;5094315;28;20079;-65
2022/10/09 08:49:26;;;;;;;1999.90;999.90;;;16.20;99.90;;;;;;5098346;28;20040;-65
2022/10/09 08:51:53;;;;;;;1999.90;999.90;;;16.30;99.90;;;;;;5111877;28;20039;-65
2022/10/09 08:54:29;;;;;;;1999.90;999.90;;;16.30;99.90;;;;;;5098716;28;20123;-65
2022/10/09 08:56:57;;;;;;;1999.90;999.90;;;16.40;99.90;;;;;;5106696;28;20048;-65
2022/10/09 08:59:22;;;;;;;1999.90;999.90;;;16.80;99.90;;;;;;5094389;28;20109;-65
2022/10/09 09:02:01;;;;;;;1999.90;999.90;;;17.20;99.90;;;;;;5107024;28;20043;-65
2022/10/09 09:04:38;;;;;;;1999.90;999.90;;;17.20;99.90;;;;;;5096345;28;20032;-65
2022/10/09 09:07:38;;;;;;;1999.90;999.90;;;17.30;99.90;;;;;;5110812;28;20036;-65
2022/10/09 09:10:19;;;;;;;1999.90;999.90;;;17.60;99.90;;;;;;5081467;28;20087;-65
2022/10/09 09:13:05;;;;;;;1999.90;999.90;;;17.80;99.90;;;;;;5090473;28;20043;-65
2022/10/09 09:15:43;;;;;;;1999.90;999.90;;;17.80;99.90;;;;;;5114022;27;20118;-65
2022/10/09 09:18:39;;;;;;;1999.90;999.90;;;17.70;99.90;;;;;;5111072;27;20161;-65
2022/10/09 09:21:37;;;;;;;1999.90;999.90;;;17.70;99.90;;;;;;5092556;28;20378;-65
2022/10/09 09:24:20;;;;;;;1999.90;999.90;;;17.70;99.90;;;;;;5102804;27;20123;-65
2022/10/09 09:26:58;;;;;;;1999.90;999.90;;;17.60;99.90;;;;;;5101516;28;20039;-65
2022/10/09 09:29:25;;;;;;;1999.90;999.90;;;17.50;99.90;;;;;;5112924;27;20057;-65
2022/10/09 09:31:58;;;;;;;1999.90;999.90;;;17.20;99.90;;;;;;5111386;27;20047;-65
2022/10/09 09:34:33;;;;;;;1999.90;999.90;;;17.10;99.90;;;;;;5077538;28;20391;-65
2022/10/09 09:37:00;;;;;;;1999.90;999.90;;;16.90;99.90;;;;;;5110587;28;20123;-65
2022/10/09 09:39:32;;;;;;;1999.90;999.90;;;16.80;99.90;;;;;;5112805;27;20469;-65
2022/10/09 09:42:21;;;;;;;1999.90;999.90;;;16.70;99.90;;;;;;5113766;27;20047;-65
2022/10/09 09:44:57;;;;;;;1999.90;999.90;;;16.90;99.90;;;;;;5079495;27;20053;-65
2022/10/09 09:47:41;;;;;;;1999.90;999.90;;;16.80;99.90;;;;;;5111010;28;20045;-65
2022/10/09 09:50:07;;;;;;;1999.90;999.90;;;16.70;99.90;;;;;;5092545;28;20089;-65
2022/10/09 09:52:42;;;;;;;1999.90;999.90;;;16.60;99.90;;;;;;5092932;28;20044;-65
2022/10/09 09:55:26;;;;;;;1999.90;999.90;;;16.70;99.90;;;;;;5074772;28;20058;-66
2022/10/09 09:58:00;;;;;;;1999.90;999.90;;;16.70;99.90;;;;;;5112619;27;20116;-65
2022/10/09 10:00:26;;;;;;;1999.90;999.90;;;16.80;99.90;;;;;;5111823;27;20071;-65
2022/10/09 10:03:02;;;;;;;1999.90;999.90;;;16.80;99.90;;;;;;5092211;28;20145;-65
2022/10/09 10:05:35;;;;;;;1999.90;999.90;;;16.80;99.90;;;;;;5092193;27;20069;-66
2022/10/09 10:08:20;;;;;;;1999.90;999.90;;;16.70;99.90;;;;;;5100407;28;20050;-65
2022/10/09 10:10:46;;;;;;;1999.90;999.90;;;16.50;99.90;;;;;;5123453;27;20051;-65
2022/10/09 10:13:21;;;;;;;1999.90;999.90;;;16.40;99.90;;;;;;5094669;28;20047;-66
2022/10/09 10:15:55;;;;;;;1999.90;999.90;;;16.50;99.90;;;;;;5087572;28;20501;-66
2022/10/09 10:18:23;;;;;;;1999.90;999.90;;;16.50;99.90;;;;;;5088162;28;20458;-65
2022/10/09 10:21:02;;;;;;;1999.90;999.90;;;16.60;99.90;;;;;;5090944;28;20039;-65
2022/10/09 10:23:39;;;;;;;1999.90;999.90;;;16.60;99.90;;;;;;5091182;28;20051;-65
2022/10/09 10:26:17;;;;;;;1999.90;999.90;;;16.50;99.90;;;;;;5093259;27;20053;-65
2022/10/09 10:29:14;;;;;;;1999.90;999.90;;;16.50;99.90;;;;;;5112147;27;20126;-66
2022/10/09 10:31:54;;;;;;;1999.90;999.90;;;16.60;99.90;;;;;;5110942;27;20395;-65
2022/10/09 10:34:41;;;;;;;1999.90;999.90;;;16.70;99.90;;;;;;5091270;28;20614;-65
2022/10/09 10:37:37;;;;;;;1999.90;999.90;;;16.90;99.90;;;;;;5086239;28;20382;-65
2022/10/09 10:40:14;;;;;;;1999.90;999.90;;;17.00;99.90;;;;;;5070033;28;20109;-65
2022/10/09 10:42:48;;;;;;;1999.90;999.90;;;17.20;99.90;;;;;;5098942;28;20058;-65
2022/10/09 10:45:18;;;;;;;1999.90;999.90;;;17.30;99.90;;;;;;5093879;27;20417;-65
2022/10/09 10:47:52;;;;;;;1999.90;999.90;;;17.30;99.90;;;;;;5118465;27;20050;-66
2022/10/09 10:50:19;;;;;;;1999.90;999.90;;;17.30;99.90;;;;;;5092019;28;20040;-65
2022/10/09 10:53:05;;;;;;;1999.90;999.90;;;17.40;99.90;;;;;;5123706;27;20043;-65
2022/10/09 10:55:47;;;;;;;1999.90;999.90;;;17.40;99.90;;;;;;5101486;27;20085;-66
2022/10/09 10:58:24;;;;;;;1999.90;999.90;;;17.40;99.90;;;;;;5082609;28;20113;-65
2022/10/09 11:01:18;;;;;;;1999.90;999.90;;;17.20;99.90;;;;;;5108710;28;20043;-65
2022/10/09 11:04:14;;;;;;;1999.90;999.90;;;17.20;99.90;;;;;;5097133;28;20155;-65
2022/10/09 11:06:55;;;;;;;1999.90;999.90;;;17.20;99.90;;;;;;5097731;28;20047;-65
2022/10/09 11:09:48;;;;;;;1999.90;999.90;;;17.20;99.90;;;;;;5108721;28;20166;-65
2022/10/09 11:12:32;;;;;;;;;;;17.30;99.90;;;;;;5109350;28;20401;-65
2022/10/09 11:15:11;;;;;;;1999.90;999.90;;;17.40;99.90;;;;;;5099971;27;20319;-65
2022/10/09 11:17:54;;;;;;;1999.90;999.90;;;17.40;99.90;;;;;;5076680;28;20414;-65
2022/10/09 11:20:37;;;;;;;1999.90;999.90;;;17.20;99.90;;;;;;5108950;28;20045;-65
2022/10/09 11:23:23;;;;;;;;;;;17.20;99.90;;;;;;5076827;28;20138;-65
2022/10/09 11:26:06;;;;;;;1999.90;999.90;;;17.10;99.90;;;;;;5108144;28;20424;-65
2022/10/09 11:28:37;;;;;;;;;;;17.20;99.90;;;;;;5079243;28;20043;-65
2022/10/09 11:31:18;;;;;;;1999.90;999.90;;;17.10;99.90;;;;;;5108782;28;19919;-65
2022/10/09 11:33:50;;;;;;;1999.90;999.90;;;16.90;99.90;;;;;;5095479;28;20051;-65
2022/10/09 11:36:19;;;;;;;1999.90;999.90;;;16.80;99.90;;;;;;5108095;27;20043;-65
2022/10/09 11:38:49;;;;;;;1999.90;999.90;;;16.80;99.90;;;;;;5108821;28;20038;-65
2022/10/09 11:41:15;;;;;;;1999.90;999.90;;;17.00;99.90;;;;;;5109652;28;20146;-65
2022/10/09 11:44:09;;;;;;;1999.90;999.90;;;17.30;99.90;;;;;;5092573;28;20113;-65
2022/10/09 11:46:48;;;;;;;1999.90;999.90;;;17.40;99.90;;;;;;5122406;27;20473;-65
2022/10/09 11:49:34;;;;;;;1999.90;999.90;;;17.40;99.90;;;;;;5091716;28;20100;-65
2022/10/09 11:52:18;;;;;;;1999.90;999.90;;;17.40;99.90;;;;;;5106005;27;20040;-66
2022/10/09 11:54:43;;;;;;;1999.90;999.90;;;17.30;99.90;;;;;;5080417;28;20583;-65
2022/10/09 11:57:09;;;;;;;1999.90;999.90;;;17.30;99.90;;;;;;5108099;28;20143;-65
2022/10/09 11:59:40;;;;;;;1999.90;999.90;;;17.30;99.90;;;;;;5090294;28;20051;-65
2022/10/09 12:02:33;;;;;;;1999.90;999.90;;;17.30;99.90;;;;;;5089014;28;20054;-65
2022/10/09 12:04:58;;;;;;;1999.90;999.90;;;17.50;99.90;;;;;;5105099;28;20052;-65
2022/10/09 12:07:36;;;;;;;1999.90;999.90;;;17.60;99.90;;;;;;5086506;28;20044;-65
2022/10/09 12:10:20;;;;;;;1999.90;999.90;;;17.60;99.90;;;;;;5107948;28;20044;-65
2022/10/09 12:12:55;;;;;;;1999.90;999.90;;;17.60;99.90;;;;;;5072783;28;20043;-65
2022/10/09 12:15:44;;;;;;;1999.90;999.90;;;17.50;99.90;;;;;;5090197;28;20047;-66
2022/10/09 12:18:26;;;;;;;1999.90;999.90;;;17.30;99.90;;;;;;5089832;28;20400;-65
2022/10/09 12:20:53;;;;;;;1999.90;999.90;;;17.20;99.90;;;;;;5107548;28;20067;-65
2022/10/09 12:23:24;;;;;;;1999.90;999.90;;;17.00;99.90;;;;;;5081604;28;20051;-65
2022/10/09 12:25:52;;;;;;;1999.90;999.90;;;16.90;99.90;;;;;;5107983;28;20043;-65